createdAt,value
2023-04-10T00:00:46.227Z,9.65
2023-04-10T00:03:13.824Z,10.02
2023-04-10T00:05:41.372Z,11.27
2023-04-10T00:08:08.684Z,11.25
2023-04-10T00:10:37.309Z,10.93
2023-04-10T00:13:04.677Z,11.02
2023-04-10T00:15:31.986Z,10.80
2023-04-10T00:17:59.444Z,11.38
2023-04-10T00:20:27.702Z,11.68
2023-04-10T00:22:55.008Z,10.52
2023-04-10T00:25:23.035Z,12.07
2023-04-10T00:27:51.725Z,12.45
2023-04-10T00:30:19.196Z,12.60
2023-04-10T00:32:46.563Z,12.15
2023-04-10T00:35:14.070Z,12.68
2023-04-10T00:37:41.376Z,12.48
2023-04-10T00:40:09.353Z,12.65
2023-04-10T00:42:37.188Z,13.02
2023-04-10T00:45:06.668Z,12.07
2023-04-10T00:47:34.148Z,12.40
2023-04-10T00:50:01.774Z,12.60
2023-04-10T00:52:29.125Z,12.75
2023-04-10T00:54:56.673Z,12.00
2023-04-10T00:57:23.990Z,13.50
2023-04-10T00:59:52.078Z,12.65
2023-04-10T01:02:20.881Z,13.07
2023-04-10T01:04:48.963Z,12.48
2023-04-10T01:07:21.474Z,13.30
2023-04-10T01:09:50.933Z,12.48
2023-04-10T01:12:24.278Z,13.43
2023-04-10T01:14:54.598Z,12.13
2023-04-10T01:17:28.033Z,13.07
2023-04-10T01:20:03.988Z,13.13
2023-04-10T01:22:35.608Z,13.48
2023-04-10T01:25:11.818Z,13.55
2023-04-10T01:27:42.980Z,12.90
2023-04-10T01:30:12.955Z,13.10
2023-04-10T01:32:41.042Z,12.48
2023-04-10T01:35:08.915Z,13.75
2023-04-10T01:37:38.834Z,14.02
2023-04-10T01:40:09.284Z,13.65
2023-04-10T01:42:39.878Z,13.77
2023-04-10T01:45:09.978Z,13.35
2023-04-10T01:47:38.763Z,13.98
2023-04-10T01:50:07.078Z,13.43
2023-04-10T01:52:35.247Z,13.88
2023-04-10T01:55:03.432Z,14.95
2023-04-10T01:57:31.695Z,14.10
2023-04-10T01:59:59.047Z,14.50
2023-04-10T02:02:26.458Z,15.07
2023-04-10T02:04:55.500Z,13.35
2023-04-10T02:07:26.004Z,14.30
2023-04-10T02:09:55.586Z,14.57
2023-04-10T02:12:24.492Z,15.75
2023-04-10T02:14:53.241Z,16.33
2023-04-10T02:17:23.881Z,14.45
2023-04-10T02:19:51.918Z,14.15
2023-04-10T02:22:21.860Z,14.63
2023-04-10T02:24:50.577Z,15.68
2023-04-10T02:27:27.449Z,14.95
2023-04-10T02:29:54.762Z,14.95
2023-04-10T02:32:22.118Z,15.25
2023-04-10T02:34:49.447Z,15.48
2023-04-10T02:37:16.731Z,14.60
2023-04-10T02:39:45.390Z,14.57
2023-04-10T02:42:12.671Z,13.95
2023-04-10T02:44:40.369Z,15.02
2023-04-10T02:47:08.007Z,15.30
2023-04-10T02:49:35.958Z,15.30
2023-04-10T02:52:03.397Z,15.45
2023-04-10T02:54:30.749Z,15.07
2023-04-10T02:56:59.448Z,15.35
2023-04-10T02:59:27.686Z,14.52
2023-04-10T03:01:55.295Z,15.80
2023-04-10T03:04:22.747Z,15.63
2023-04-10T03:06:50.089Z,14.98
2023-04-10T03:09:17.548Z,15.60
2023-04-10T03:11:44.894Z,16.45
2023-04-10T03:14:15.580Z,15.55
2023-04-10T03:16:42.893Z,15.82
2023-04-10T03:19:10.385Z,14.65
2023-04-10T03:21:37.679Z,14.65
2023-04-10T03:24:05.613Z,14.50
2023-04-10T03:26:32.910Z,14.30
2023-04-10T03:29:00.311Z,15.23
2023-04-10T03:31:29.304Z,15.30
2023-04-10T03:33:57.095Z,15.00
2023-04-10T03:36:24.665Z,15.50
2023-04-10T03:38:52.703Z,15.07
2023-04-10T03:41:20.013Z,15.60
2023-04-10T03:43:47.347Z,15.88
2023-04-10T03:46:14.635Z,15.10
2023-04-10T03:48:43.344Z,16.27
2023-04-10T03:51:10.810Z,16.15
2023-04-10T03:53:38.098Z,15.48
2023-04-10T03:56:05.642Z,16.02
2023-04-10T03:58:32.932Z,16.35
2023-04-10T04:01:00.283Z,15.10
2023-04-10T04:03:27.740Z,15.80
2023-04-10T04:05:56.481Z,16.65
2023-04-10T04:08:23.832Z,16.10
2023-04-10T04:10:51.131Z,14.82
2023-04-10T04:13:18.436Z,15.25
2023-04-10T04:15:45.758Z,16.05
2023-04-10T04:18:13.089Z,15.32
2023-04-10T04:20:40.459Z,16.25
2023-04-10T04:23:09.106Z,14.10
2023-04-10T04:25:36.436Z,14.60
2023-04-10T04:28:03.723Z,14.48
2023-04-10T04:30:31.061Z,14.02
2023-04-10T04:32:58.399Z,14.23
2023-04-10T04:35:25.869Z,14.45
2023-04-10T04:37:53.161Z,13.70
2023-04-10T04:40:21.837Z,14.55
2023-04-10T04:42:49.142Z,15.60
2023-04-10T04:45:16.629Z,14.60
2023-04-10T04:47:43.981Z,13.90
2023-04-10T04:50:11.277Z,13.77
2023-04-10T04:52:38.565Z,13.75
2023-04-10T04:55:08.534Z,14.68
2023-04-10T04:57:37.169Z,13.77
2023-04-10T05:00:04.728Z,15.23
2023-04-10T05:02:32.161Z,14.10
2023-04-10T05:04:59.640Z,13.63
2023-04-10T05:07:27.232Z,12.75
2023-04-10T05:09:54.558Z,13.13
2023-04-10T05:12:21.878Z,13.25
2023-04-10T05:14:50.541Z,13.75
2023-04-10T05:17:17.908Z,13.18
2023-04-10T05:19:45.511Z,14.02
2023-04-10T05:22:12.880Z,12.63
2023-04-10T05:24:40.171Z,12.98
2023-04-10T05:27:07.497Z,13.70
2023-04-10T05:29:35.397Z,13.25
2023-04-10T05:32:04.033Z,13.55
2023-04-10T05:34:31.347Z,13.05
2023-04-10T05:36:59.217Z,13.18
2023-04-10T05:39:26.683Z,12.48
2023-04-10T05:41:53.957Z,11.95
2023-04-10T05:44:21.240Z,13.10
2023-04-10T05:46:48.736Z,13.32
2023-04-10T05:49:17.666Z,11.88
2023-04-10T05:51:45.600Z,11.70
2023-04-10T05:54:12.891Z,12.20
2023-04-10T05:56:40.175Z,11.45
2023-04-10T05:59:07.625Z,11.95
2023-04-10T06:01:34.970Z,12.45
2023-04-10T06:04:03.015Z,11.40
2023-04-10T06:06:32.873Z,11.77
2023-04-10T06:09:00.395Z,10.73
2023-04-10T06:11:27.800Z,11.20
2023-04-10T06:13:55.212Z,10.18
2023-04-10T06:16:22.551Z,10.80
2023-04-10T06:18:52.322Z,11.30
2023-04-10T06:21:20.015Z,11.98
2023-04-10T06:23:48.786Z,11.40
2023-04-10T06:26:16.133Z,11.02
2023-04-10T06:28:43.498Z,11.07
2023-04-10T06:31:10.815Z,10.77
2023-04-10T06:33:38.115Z,9.32
2023-04-10T06:36:06.261Z,10.50
2023-04-10T06:38:37.537Z,11.00
2023-04-10T06:41:06.914Z,11.02
2023-04-10T06:43:35.010Z,10.82
2023-04-10T06:46:02.350Z,10.82
2023-04-10T06:48:29.677Z,9.77
2023-04-10T06:50:56.994Z,10.23
2023-04-10T06:53:24.289Z,9.15
2023-04-10T06:55:51.599Z,10.43
2023-04-10T06:58:20.809Z,11.23
2023-04-10T07:00:48.134Z,9.82
2023-04-10T07:03:15.776Z,10.75
2023-04-10T07:05:43.268Z,10.43
2023-04-10T07:08:10.599Z,10.13
2023-04-10T07:10:37.885Z,10.10
2023-04-10T07:13:05.188Z,10.23
2023-04-10T07:15:33.885Z,10.45
2023-04-10T07:18:01.266Z,8.65
2023-04-10T07:20:28.925Z,10.57
2023-04-10T07:22:56.209Z,11.15
2023-04-10T07:25:23.537Z,10.27
2023-04-10T07:27:51.049Z,11.07
2023-04-10T07:30:18.358Z,10.15
2023-04-10T07:32:47.189Z,10.32
2023-04-10T07:35:14.578Z,10.55
2023-04-10T07:37:43.845Z,9.32
2023-04-10T07:40:11.512Z,9.50
2023-04-10T07:42:39.144Z,7.80
2023-04-10T07:45:06.975Z,9.75
2023-04-10T07:47:34.353Z,9.38
2023-04-10T07:50:03.070Z,9.48
2023-04-10T07:52:30.421Z,9.55
2023-04-10T07:54:57.775Z,9.73
2023-04-10T07:57:25.558Z,9.55
2023-04-10T07:59:52.838Z,8.68
2023-04-10T08:02:20.263Z,8.98
2023-04-10T08:04:47.853Z,9.35
2023-04-10T08:07:16.590Z,8.50
2023-04-10T08:09:43.945Z,8.15
2023-04-10T08:12:11.217Z,8.32
2023-04-10T08:14:38.534Z,9.05
2023-04-10T08:17:06.152Z,7.95
2023-04-10T08:19:33.506Z,6.90
2023-04-10T08:22:00.853Z,8.00
2023-04-10T08:24:29.543Z,8.32
2023-04-10T08:26:56.850Z,7.25
2023-04-10T08:31:51.467Z,7.47
2023-04-10T08:34:19.005Z,7.88
2023-04-10T08:36:46.309Z,7.50
2023-04-10T08:39:13.630Z,7.40
2023-04-10T08:41:42.836Z,7.45
2023-04-10T08:44:10.186Z,7.40
2023-04-10T08:46:37.699Z,7.45
2023-04-10T08:49:05.540Z,6.10
2023-04-10T08:51:33.560Z,7.00
2023-04-10T08:54:06.833Z,7.15
2023-04-10T08:56:34.441Z,7.30
2023-04-10T08:59:03.969Z,7.90
2023-04-10T09:01:31.711Z,6.55
2023-04-10T09:03:59.730Z,7.28
2023-04-10T09:06:27.546Z,6.40
2023-04-10T09:08:54.882Z,6.40
2023-04-10T09:11:22.175Z,6.82
2023-04-10T09:13:49.480Z,6.88
2023-04-10T09:16:18.146Z,6.47
2023-04-10T09:18:46.647Z,6.53
2023-04-10T09:21:15.114Z,6.88
2023-04-10T09:23:42.876Z,5.68
2023-04-10T09:26:27.985Z,6.22
2023-04-10T09:28:58.974Z,6.32
2023-04-10T09:31:35.038Z,6.53
2023-04-10T09:34:09.569Z,6.35
2023-04-10T09:36:37.745Z,6.18
2023-04-10T09:39:05.223Z,6.30
2023-04-10T09:41:32.634Z,5.75
2023-04-10T09:44:06.842Z,6.03
2023-04-10T09:46:35.856Z,5.85
2023-04-10T09:49:05.163Z,5.72
2023-04-10T09:51:33.808Z,6.38
2023-04-10T09:54:02.003Z,5.63
2023-04-10T09:56:29.861Z,5.50
2023-04-10T09:58:58.118Z,5.40
2023-04-10T10:01:26.863Z,6.10
2023-04-10T10:03:56.348Z,6.00
2023-04-10T10:06:24.249Z,5.57
2023-04-10T10:08:51.807Z,5.82
2023-04-10T10:11:20.002Z,5.57
2023-04-10T10:13:48.833Z,5.20
2023-04-10T10:16:20.325Z,5.40
2023-04-10T10:18:52.746Z,5.20
2023-04-10T10:21:22.956Z,5.63
2023-04-10T10:23:53.852Z,5.10
2023-04-10T10:26:23.250Z,5.43
2023-04-10T10:28:51.604Z,5.57
2023-04-10T10:31:19.756Z,5.13
2023-04-10T10:33:47.996Z,5.40
2023-04-10T10:36:16.948Z,5.57
2023-04-10T10:38:51.653Z,4.82
2023-04-10T10:43:51.627Z,5.07
2023-04-10T10:46:23.405Z,4.78
2023-04-10T10:48:57.727Z,5.15
2023-04-10T10:51:25.071Z,4.57
2023-04-10T10:53:53.699Z,5.20
2023-04-10T10:56:37.026Z,5.00
2023-04-10T10:59:04.382Z,4.38
2023-04-10T11:01:31.730Z,4.20
2023-04-10T11:03:59.854Z,4.35
2023-04-10T11:06:45.807Z,4.20
2023-04-10T11:12:07.642Z,4.22
2023-04-10T11:14:34.941Z,3.92
2023-04-10T11:17:02.304Z,4.00
2023-04-10T11:19:29.695Z,4.05
2023-04-10T11:22:07.855Z,4.40
2023-04-10T11:24:52.597Z,3.55
2023-04-10T11:27:40.246Z,3.80
2023-04-10T11:30:22.673Z,3.88
2023-04-10T11:32:50.788Z,3.95
2023-04-10T11:35:20.236Z,3.80
2023-04-10T11:37:47.665Z,3.60
2023-04-10T11:40:15.001Z,4.05
2023-04-10T11:42:43.630Z,3.83
2023-04-10T11:45:23.717Z,3.33
2023-04-10T11:47:52.192Z,3.95
2023-04-10T11:50:20.926Z,2.72
2023-04-10T11:52:48.656Z,3.13
2023-04-10T11:55:16.503Z,3.20
2023-04-10T11:57:45.252Z,2.90
2023-04-10T12:00:13.118Z,2.38
2023-04-10T12:02:51.368Z,2.83
2023-04-10T12:05:18.904Z,2.90
2023-04-10T12:07:46.259Z,2.70
2023-04-10T12:10:13.579Z,3.28
2023-04-10T12:12:41.379Z,3.03
2023-04-10T12:15:23.741Z,2.90
2023-04-10T12:17:52.490Z,2.75
2023-04-10T12:20:19.906Z,2.40
2023-04-10T12:22:47.952Z,2.40
2023-04-10T12:25:17.290Z,2.58
2023-04-10T12:27:49.262Z,2.60
2023-04-10T12:30:16.601Z,2.53
2023-04-10T12:32:51.683Z,2.30
2023-04-10T12:35:20.436Z,2.13
2023-04-10T12:37:48.296Z,2.22
2023-04-10T12:40:15.892Z,2.50
2023-04-10T12:42:43.276Z,2.05
2023-04-10T12:45:13.604Z,2.35
2023-04-10T12:47:45.336Z,2.47
2023-04-10T12:50:13.907Z,2.45
2023-04-10T12:52:43.105Z,4.22
2023-04-10T12:55:11.876Z,3.40
2023-04-10T12:57:39.247Z,3.00
2023-04-10T13:00:09.337Z,2.28
2023-04-10T13:02:37.074Z,2.40
2023-04-10T13:05:04.767Z,2.35
2023-04-10T13:07:32.090Z,2.35
2023-04-10T13:10:00.920Z,3.55
2023-04-10T13:12:29.787Z,2.53
2023-04-10T13:14:57.460Z,3.50
2023-04-10T13:17:25.230Z,2.38
2023-04-10T13:19:52.583Z,2.40
2023-04-10T13:22:20.116Z,2.67
2023-04-10T13:24:47.448Z,3.20
2023-04-10T13:27:16.128Z,2.65
2023-04-10T13:29:44.102Z,2.33
2023-04-10T13:32:11.389Z,2.95
2023-04-10T13:34:38.703Z,3.75
2023-04-10T13:37:06.043Z,3.15
2023-04-10T13:39:33.378Z,2.03
2023-04-10T13:42:01.982Z,2.85
2023-04-10T13:44:30.621Z,3.25
2023-04-10T13:46:58.149Z,2.83
2023-04-10T13:49:25.642Z,2.65
2023-04-10T13:51:52.945Z,2.40
2023-04-10T13:54:20.315Z,2.55
2023-04-10T13:56:48.003Z,3.00
2023-04-10T13:59:15.349Z,3.10
2023-04-10T14:01:44.025Z,3.60
2023-04-10T14:04:11.365Z,3.80
2023-04-10T14:06:38.884Z,2.33
2023-04-10T14:09:06.917Z,2.63
2023-04-10T14:11:34.233Z,2.72
2023-04-10T14:14:01.554Z,2.58
2023-04-10T14:16:28.861Z,2.75
2023-04-10T14:18:57.560Z,2.75
2023-04-10T14:21:24.832Z,2.33
2023-04-10T14:23:52.151Z,2.30
2023-04-10T14:26:19.492Z,3.17
2023-04-10T14:28:46.776Z,2.88
2023-04-10T14:31:14.041Z,4.38
2023-04-10T14:33:41.334Z,4.43
2023-04-10T14:36:10.558Z,3.72
2023-04-10T14:38:37.929Z,4.13
2023-04-10T14:41:05.381Z,2.70
2023-04-10T14:43:32.655Z,3.28
2023-04-10T14:45:59.991Z,5.85
2023-04-10T14:48:27.468Z,4.22
2023-04-10T14:50:55.431Z,2.92
2023-04-10T14:53:24.245Z,3.28
2023-04-10T14:55:51.579Z,3.15
2023-04-10T14:58:18.897Z,2.65
2023-04-10T15:00:46.269Z,2.60
2023-04-10T15:03:13.635Z,3.38
2023-04-10T15:05:41.033Z,3.95
2023-04-10T15:08:08.338Z,3.42
2023-04-10T15:10:36.985Z,4.50
2023-04-10T15:13:05.114Z,4.28
2023-04-10T15:15:32.505Z,5.32
2023-04-10T15:17:59.877Z,3.72
2023-04-10T15:20:27.231Z,3.50
2023-04-10T15:22:54.557Z,3.50
2023-04-10T15:25:21.836Z,5.32
2023-04-10T15:27:50.543Z,11.65
2023-04-10T15:30:18.114Z,8.00
2023-04-10T15:32:45.476Z,5.78
2023-04-10T15:35:12.816Z,3.55
2023-04-10T15:37:40.120Z,3.97
2023-04-10T15:40:07.871Z,3.63
2023-04-10T15:42:35.432Z,2.67
2023-04-10T15:45:04.183Z,3.30
2023-04-10T15:47:31.712Z,3.10
2023-04-10T15:49:59.182Z,3.00
2023-04-10T15:52:26.580Z,3.53
2023-04-10T15:54:53.891Z,3.80
2023-04-10T15:57:21.218Z,2.60
2023-04-10T15:59:52.085Z,2.85
2023-04-10T16:02:20.847Z,2.53
2023-04-10T16:04:48.323Z,2.70
2023-04-10T16:07:15.815Z,3.05
2023-04-10T16:09:43.110Z,3.33
2023-04-10T16:12:11.767Z,3.10
2023-04-10T16:14:39.077Z,3.00
2023-04-10T16:17:06.464Z,3.30
2023-04-10T16:19:35.111Z,3.40
2023-04-10T16:22:02.508Z,3.45
2023-04-10T16:24:29.902Z,3.97
2023-04-10T16:26:57.254Z,3.63
2023-04-10T16:29:24.585Z,3.83
2023-04-10T16:31:52.032Z,3.45
2023-04-10T16:34:19.502Z,3.35
2023-04-10T16:36:48.191Z,3.25
2023-04-10T16:39:15.509Z,3.40
2023-04-10T16:41:42.831Z,3.70
2023-04-10T16:44:10.174Z,4.18
2023-04-10T16:46:37.604Z,3.95
2023-04-10T16:49:04.953Z,3.92
2023-04-10T16:51:32.279Z,3.40
2023-04-10T16:54:00.927Z,3.75
2023-04-10T16:56:28.236Z,3.75
2023-04-10T16:58:57.398Z,3.38
2023-04-10T17:01:25.948Z,3.80
2023-04-10T17:03:53.670Z,3.97
2023-04-10T17:06:20.989Z,3.55
2023-04-10T17:08:48.659Z,3.42
2023-04-10T17:11:17.333Z,3.30
2023-04-10T17:13:44.681Z,3.25
2023-04-10T17:16:11.964Z,3.67
2023-04-10T17:18:39.338Z,3.90
2023-04-10T17:21:06.988Z,3.50
2023-04-10T17:23:34.469Z,3.35
2023-04-10T17:26:05.477Z,3.10
2023-04-10T17:28:34.357Z,3.58
2023-04-10T17:31:02.458Z,3.40
2023-04-10T17:33:29.952Z,3.15
2023-04-10T17:35:57.440Z,3.15
2023-04-10T17:38:24.882Z,3.40
2023-04-10T17:40:52.210Z,2.75
2023-04-10T17:43:19.537Z,3.72
2023-04-10T17:45:48.184Z,5.82
2023-04-10T17:48:15.588Z,4.20
2023-04-10T17:50:43.072Z,3.80
2023-04-10T17:53:10.479Z,3.42
2023-04-10T17:55:38.792Z,3.13
2023-04-10T17:58:06.449Z,3.90
2023-04-10T18:00:34.136Z,3.05
2023-04-10T18:03:03.252Z,3.10
2023-04-10T18:05:31.105Z,3.10
2023-04-10T18:07:58.613Z,3.60
2023-04-10T18:10:26.015Z,3.30
2023-04-10T18:12:56.567Z,3.15
2023-04-10T18:15:23.863Z,2.92
2023-04-10T18:17:51.334Z,3.10
2023-04-10T18:20:20.772Z,2.95
2023-04-10T18:22:48.419Z,2.97
2023-04-10T18:25:15.712Z,2.67
2023-04-10T18:27:48.057Z,2.45
2023-04-10T18:30:19.423Z,2.28
2023-04-10T18:32:46.844Z,1.90
2023-04-10T18:35:14.271Z,2.33
2023-04-10T18:37:44.254Z,2.13
2023-04-10T18:40:16.206Z,1.75
2023-04-10T18:42:44.488Z,1.90
2023-04-10T18:45:13.400Z,1.52
2023-04-10T18:47:40.759Z,2.08
2023-04-10T18:50:10.182Z,1.30
2023-04-10T18:52:37.637Z,1.75
2023-04-10T18:55:06.801Z,2.42
2023-04-10T18:57:34.597Z,2.20
2023-04-10T19:00:04.412Z,1.70
2023-04-10T19:02:31.875Z,2.30
2023-04-10T19:04:59.408Z,2.15
2023-04-10T19:07:26.797Z,2.20
2023-04-10T19:09:54.111Z,2.13
2023-04-10T19:12:22.772Z,2.25
2023-04-10T19:14:50.408Z,2.83
2023-04-10T19:17:17.706Z,2.58
2023-04-10T19:19:45.007Z,2.75
2023-04-10T19:22:13.250Z,2.38
2023-04-10T19:24:40.580Z,2.83
2023-04-10T19:27:07.985Z,2.63
2023-04-10T19:29:36.661Z,3.00
2023-04-10T19:32:04.038Z,4.95
2023-04-10T19:34:31.335Z,3.30
2023-04-10T19:36:59.974Z,3.42
2023-04-10T19:39:27.241Z,3.38
2023-04-10T19:41:56.109Z,3.63
2023-04-10T19:44:23.500Z,3.47
2023-04-10T19:46:52.181Z,2.95
2023-04-10T19:49:19.574Z,3.60
2023-04-10T19:51:46.951Z,3.75
2023-04-10T19:54:14.277Z,3.78
2023-04-10T19:56:42.403Z,3.92
2023-04-10T19:59:09.743Z,4.22
2023-04-10T20:01:37.094Z,5.10
2023-04-10T20:04:05.875Z,5.28
2023-04-10T20:06:33.297Z,5.13
2023-04-10T20:09:00.548Z,4.40
2023-04-10T20:11:30.479Z,3.58
2023-04-10T20:13:57.975Z,3.30
2023-04-10T20:16:26.747Z,3.40
2023-04-10T20:18:54.994Z,2.78
2023-04-10T20:21:23.901Z,2.92
2023-04-10T20:23:51.193Z,2.72
2023-04-10T20:26:18.597Z,2.28
2023-04-10T20:28:46.005Z,2.20
2023-04-10T20:31:14.496Z,2.30
2023-04-10T20:33:42.224Z,2.40
2023-04-10T20:36:09.723Z,2.22
2023-04-10T20:38:38.522Z,3.28
2023-04-10T20:41:05.969Z,2.42
2023-04-10T20:43:33.383Z,2.78
2023-04-10T20:46:03.165Z,2.97
2023-04-10T20:48:30.893Z,3.53
2023-04-10T20:50:58.370Z,3.05
2023-04-10T20:53:26.447Z,3.30
2023-04-10T20:55:55.286Z,3.35
2023-04-10T20:58:22.790Z,2.92
2023-04-10T21:00:51.709Z,2.97
2023-04-10T21:03:19.278Z,3.30
2023-04-10T21:05:46.765Z,3.50
2023-04-10T21:08:14.611Z,2.65
2023-04-10T21:10:44.612Z,3.13
2023-04-10T21:13:14.773Z,3.22
2023-04-10T21:15:42.375Z,2.53
2023-04-10T21:18:10.121Z,2.60
2023-04-10T21:20:37.498Z,2.28
2023-04-10T21:23:05.089Z,2.65
2023-04-10T21:25:33.266Z,2.30
2023-04-10T21:28:01.292Z,2.53
2023-04-10T21:30:30.034Z,1.90
2023-04-10T21:32:57.418Z,2.45
2023-04-10T21:35:24.854Z,2.20
2023-04-10T21:37:56.396Z,2.40
2023-04-10T21:40:24.601Z,2.20
2023-04-10T21:42:52.968Z,1.98
2023-04-10T21:45:21.198Z,2.63
2023-04-10T21:47:49.876Z,2.13
2023-04-10T21:50:17.204Z,2.03
2023-04-10T21:52:44.574Z,2.33
2023-04-10T21:55:12.257Z,2.25
2023-04-10T21:57:39.590Z,2.10
2023-04-10T22:00:09.654Z,2.00
2023-04-10T22:02:37.108Z,1.20
2023-04-10T22:05:06.221Z,1.58
2023-04-10T22:07:33.528Z,1.52
2023-04-10T22:10:00.795Z,1.38
2023-04-10T22:12:28.106Z,1.48
2023-04-10T22:14:55.396Z,1.83
2023-04-10T22:17:23.532Z,1.50
2023-04-10T22:19:51.486Z,1.50
2023-04-10T22:22:21.108Z,1.35
2023-04-10T22:24:48.557Z,1.50
2023-04-10T22:27:15.900Z,1.10
2023-04-10T22:29:47.488Z,1.23
2023-04-10T22:32:17.604Z,1.30
2023-04-10T22:34:44.890Z,1.52
2023-04-10T22:37:12.146Z,1.10
2023-04-10T22:39:40.807Z,1.10
2023-04-10T22:42:08.076Z,1.10
2023-04-10T22:44:35.369Z,1.17
2023-04-10T22:47:02.852Z,1.38
2023-04-10T22:49:31.124Z,1.45
2023-04-10T22:51:58.422Z,1.20
2023-04-10T22:54:25.730Z,1.08
2023-04-10T22:56:54.398Z,1.13
2023-04-10T22:59:21.688Z,1.08
2023-04-10T23:01:49.144Z,1.13
2023-04-10T23:04:16.544Z,1.27
2023-04-10T23:06:43.835Z,1.48
2023-04-10T23:09:11.182Z,1.05
2023-04-10T23:11:38.681Z,1.02
2023-04-10T23:14:07.521Z,1.13
2023-04-10T23:16:34.989Z,1.55
2023-04-10T23:19:02.379Z,1.30
2023-04-10T23:21:29.624Z,1.00
2023-04-10T23:23:56.965Z,1.15
2023-04-10T23:26:24.406Z,1.45
2023-04-10T23:28:51.781Z,1.30
2023-04-10T23:31:20.567Z,1.00
2023-04-10T23:33:47.898Z,1.10
2023-04-10T23:36:15.469Z,0.80
2023-04-10T23:38:42.786Z,1.30
2023-04-10T23:41:10.066Z,0.93
2023-04-10T23:43:37.354Z,1.23
2023-04-10T23:46:04.742Z,0.90
2023-04-10T23:48:33.398Z,1.27
2023-04-10T23:51:04.105Z,1.23
2023-04-10T23:53:31.567Z,1.25
2023-04-10T23:55:59.026Z,1.50
2023-04-10T23:58:26.339Z,1.10
